Time;durP1;ratioP1;P1;durP2;ratioP2;P2;SDS_P1;SDS_P2;PMS_P1;PMS_P2;Temp;Humidity;BMP_temperature;BMP_pressure;BME280_temperature;BME280_humidity;BME280_pressure;Samples;Min_cycle;Max_cycle;Signal;HPM_P1;HPM_P2
2024/01/03 00:00:25;;;;;;;1.27;0.98;;;15.00;71.00;;;;;;5052073;28;20066;-74
2024/01/03 00:02:51;;;;;;;0.50;0.50;;;15.00;71.20;;;;;;5069228;28;20563;-74
2024/01/03 00:05:38;;;;;;;0.60;0.60;;;15.00;71.00;;;;;;5048751;28;20164;-74
2024/01/03 00:08:05;;;;;;;0.50;0.50;;;15.00;70.80;;;;;;5051195;28;20111;-75
2024/01/03 00:10:51;;;;;;;0.40;0.40;;;15.00;70.90;;;;;;5069180;28;20109;-74
2024/01/03 00:13:29;;;;;;;1.10;0.95;;;15.10;70.80;;;;;;5053777;28;20439;-75
2024/01/03 00:16:22;;;;;;;0.47;0.47;;;15.10;70.60;;;;;;5054254;28;20025;-74
2024/01/03 00:18:51;;;;;;;0.50;0.50;;;15.10;70.70;;;;;;5074686;28;20033;-75
2024/01/03 00:21:25;;;;;;;3.05;1.55;;;15.10;70.60;;;;;;5069866;28;20032;-75
2024/01/03 00:24:14;;;;;;;1.20;1.20;;;15.00;70.30;;;;;;5051100;28;20575;-74
2024/01/03 00:26:40;;;;;;;0.60;0.60;;;15.00;70.00;;;;;;5072299;28;20438;-74
2024/01/03 00:29:34;;;;;;;0.65;0.65;;;14.90;69.70;;;;;;5059034;28;20024;-74
2024/01/03 00:32:03;;;;;;;1.13;1.13;;;14.70;70.10;;;;;;5058871;28;20040;-74
2024/01/03 00:34:39;;;;;;;0.50;0.50;;;14.70;70.20;;;;;;5061772;28;20131;-74
2024/01/03 00:37:24;;;;;;;0.50;0.50;;;14.70;70.20;;;;;;5060569;28;20059;-74
2024/01/03 00:39:50;;;;;;;0.55;0.55;;;14.60;70.70;;;;;;5077672;28;20396;-74
2024/01/03 00:42:16;;;;;;;0.47;0.47;;;14.60;70.50;;;;;;5078747;28;20033;-74
2024/01/03 00:44:42;;;;;;;0.50;0.50;;;14.50;70.50;;;;;;5058329;28;20025;-74
2024/01/03 00:47:08;;;;;;;0.50;0.50;;;14.50;70.60;;;;;;5076198;28;20099;-76
2024/01/03 00:49:34;;;;;;;0.50;0.50;;;14.40;70.50;;;;;;5077872;28;20048;-76
2024/01/03 00:52:01;;;;;;;7.43;1.98;;;14.30;70.60;;;;;;5076478;28;20120;-74
2024/01/03 00:54:28;;;;;;;0.60;0.60;;;14.40;70.70;;;;;;5074232;28;20294;-74
2024/01/03 00:56:54;;;;;;;0.50;0.50;;;14.30;70.90;;;;;;5072146;28;20063;-74
2024/01/03 00:59:20;;;;;;;0.50;0.50;;;14.30;70.70;;;;;;5062969;28;20523;-75
2024/01/03 01:01:47;;;;;;;0.50;0.50;;;14.20;70.90;;;;;;5068390;28;20044;-74
2024/01/03 01:04:13;;;;;;;0.60;0.60;;;14.20;71.00;;;;;;5059435;28;20028;-75
2024/01/03 01:06:41;;;;;;;0.70;0.70;;;14.10;71.10;;;;;;5069538;28;20043;-75
2024/01/03 01:09:08;;;;;;;0.50;0.50;;;14.00;71.20;;;;;;5068945;28;20056;-74
2024/01/03 01:11:34;;;;;;;0.40;0.40;;;14.00;71.30;;;;;;5070613;28;20032;-74
2024/01/03 01:14:00;;;;;;;0.40;0.40;;;14.00;71.30;;;;;;5077601;28;20452;-75
2024/01/03 01:16:25;;;;;;;0.50;0.50;;;14.00;71.40;;;;;;5051055;28;20033;-75
2024/01/03 01:18:51;;;;;;;0.70;0.70;;;14.10;71.80;;;;;;5068707;28;20024;-75
2024/01/03 01:21:16;;;;;;;0.75;0.75;;;14.20;71.80;;;;;;5054700;28;20047;-74
2024/01/03 01:23:42;;;;;;;0.98;0.93;;;14.20;71.80;;;;;;5064799;28;20423;-75
2024/01/03 01:26:08;;;;;;;0.60;0.60;;;14.30;71.60;;;;;;5068996;28;20469;-75
2024/01/03 01:28:34;;;;;;;0.50;0.50;;;14.30;71.50;;;;;;5068949;28;20052;-74
2024/01/03 01:30:59;;;;;;;1.45;1.35;;;14.40;71.50;;;;;;5068034;28;20622;-74
2024/01/03 01:33:24;;;;;;;0.55;0.55;;;14.40;71.30;;;;;;5068078;28;20112;-74
2024/01/03 01:35:50;;;;;;;0.60;0.60;;;14.50;71.00;;;;;;5069996;28;20426;-74
2024/01/03 01:38:15;;;;;;;0.50;0.50;;;14.50;70.90;;;;;;5067612;28;20095;-74
2024/01/03 01:40:41;;;;;;;2.33;1.25;;;14.60;71.00;;;;;;5068258;28;20903;-73
2024/01/03 01:43:07;;;;;;;1.17;1.08;;;14.60;70.70;;;;;;5071448;28;20033;-74
2024/01/03 01:45:32;;;;;;;0.60;0.60;;;14.70;70.60;;;;;;5069850;28;20021;-74
2024/01/03 01:47:58;;;;;;;0.50;0.50;;;14.60;70.60;;;;;;5074770;28;20032;-74
2024/01/03 01:50:25;;;;;;;0.40;0.40;;;14.70;70.60;;;;;;5076790;28;20031;-74
2024/01/03 01:52:52;;;;;;;0.50;0.50;;;14.70;70.30;;;;;;5079526;28;20021;-74
2024/01/03 01:55:18;;;;;;;0.50;0.50;;;14.80;70.10;;;;;;5065065;28;20092;-74
2024/01/03 01:57:44;;;;;;;6.63;1.25;;;14.80;70.10;;;;;;5065769;28;20104;-74
2024/01/03 02:00:12;;;;;;;0.50;0.50;;;14.80;69.90;;;;;;5084024;28;20732;-74
2024/01/03 02:02:38;;;;;;;0.65;0.65;;;14.80;69.90;;;;;;5088747;28;20025;-73
2024/01/03 02:05:04;;;;;;;0.50;0.50;;;14.80;69.90;;;;;;5089696;28;20028;-74
2024/01/03 02:07:30;;;;;;;0.50;0.50;;;14.80;69.80;;;;;;5072788;28;20310;-74
2024/01/03 02:09:56;;;;;;;0.73;0.73;;;14.80;69.90;;;;;;5073265;28;20442;-74
2024/01/03 02:12:29;;;;;;;0.40;0.40;;;14.80;70.00;;;;;;5091966;28;20180;-74
2024/01/03 02:14:55;;;;;;;1.73;1.02;;;14.80;69.80;;;;;;5091645;28;20028;-74
2024/01/03 02:17:21;;;;;;;0.80;0.80;;;14.70;69.80;;;;;;5079458;28;20810;-73
2024/01/03 02:19:47;;;;;;;0.60;0.60;;;14.70;69.90;;;;;;5093228;28;20036;-74
2024/01/03 02:22:12;;;;;;;1.13;1.08;;;14.70;69.80;;;;;;5093748;28;20029;-74
2024/01/03 02:24:38;;;;;;;5.70;2.28;;;14.70;69.90;;;;;;5094137;28;20058;-73
2024/01/03 02:27:03;;;;;;;0.60;0.60;;;14.70;69.90;;;;;;5093964;28;20016;-74
2024/01/03 02:29:29;;;;;;;0.50;0.50;;;14.70;69.90;;;;;;5094418;28;20036;-73
2024/01/03 02:31:54;;;;;;;0.50;0.50;;;14.70;70.00;;;;;;5067829;28;20488;-71
2024/01/03 02:34:20;;;;;;;4.70;1.15;;;14.70;70.00;;;;;;5067265;28;20070;-72
2024/01/03 02:36:48;;;;;;;0.55;0.55;;;14.70;70.10;;;;;;5067301;28;20440;-71
2024/01/03 02:39:13;;;;;;;0.55;0.55;;;14.70;69.90;;;;;;5067100;28;20027;-72
2024/01/03 02:41:39;;;;;;;1.23;1.20;;;14.70;69.90;;;;;;5062610;28;20391;-71
2024/01/03 02:44:04;;;;;;;1.05;1.02;;;14.60;69.90;;;;;;5055854;28;20036;-71
2024/01/03 02:46:36;;;;;;;1.15;1.05;;;14.70;70.00;;;;;;5066639;28;20042;-72
2024/01/03 02:49:02;;;;;;;0.60;0.60;;;14.60;70.10;;;;;;5048358;28;20046;-71
2024/01/03 02:51:27;;;;;;;0.75;0.75;;;14.70;70.00;;;;;;5066527;28;20036;-72
2024/01/03 02:53:53;;;;;;;0.43;0.43;;;14.70;70.00;;;;;;5059888;28;20051;-71
2024/01/03 02:56:18;;;;;;;0.65;0.65;;;14.70;69.80;;;;;;5064679;28;20119;-72
2024/01/03 02:58:44;;;;;;;0.60;0.60;;;14.70;69.90;;;;;;5047988;28;20016;-70
2024/01/03 03:01:10;;;;;;;3.70;1.30;;;14.70;69.90;;;;;;5066082;28;20028;-71
2024/01/03 03:03:35;;;;;;;0.50;0.50;;;14.80;69.80;;;;;;5066182;28;20032;-71
2024/01/03 03:06:02;;;;;;;0.40;0.40;;;14.80;69.70;;;;;;5065736;28;20103;-70
2024/01/03 03:08:28;;;;;;;0.98;0.98;;;14.80;69.90;;;;;;5049129;28;20062;-71
2024/01/03 03:10:53;;;;;;;0.82;0.82;;;14.70;69.70;;;;;;5065628;28;20025;-73
2024/01/03 03:13:19;;;;;;;0.60;0.60;;;14.80;69.40;;;;;;5048531;28;20060;-71
2024/01/03 03:15:46;;;;;;;11.10;3.00;;;14.70;69.40;;;;;;5066657;28;20012;-72
2024/01/03 03:18:12;;;;;;;0.60;0.60;;;14.70;69.10;;;;;;5066978;28;20021;-72
2024/01/03 03:20:38;;;;;;;0.50;0.50;;;14.70;69.60;;;;;;5048328;28;20036;-71
2024/01/03 03:23:03;;;;;;;0.65;0.65;;;14.70;69.50;;;;;;5065164;28;20034;-73
2024/01/03 03:25:29;;;;;;;1.20;0.80;;;14.60;69.40;;;;;;5064975;28;21719;-71
2024/01/03 03:27:54;;;;;;;0.50;0.50;;;14.60;69.60;;;;;;5065813;28;20055;-71
2024/01/03 03:30:20;;;;;;;0.70;0.70;;;14.70;69.50;;;;;;5065142;28;20025;-71
2024/01/03 03:32:47;;;;;;;0.70;0.70;;;14.70;69.20;;;;;;5066425;28;20043;-72
2024/01/03 03:35:12;;;;;;;0.50;0.50;;;14.70;69.40;;;;;;5066623;28;20017;-72
2024/01/03 03:37:41;;;;;;;0.60;0.60;;;14.70;69.30;;;;;;5066466;28;20376;-72
2024/01/03 03:40:08;;;;;;;0.65;0.65;;;14.60;69.40;;;;;;5066180;28;20591;-71
2024/01/03 03:42:33;;;;;;;5.78;1.63;;;14.60;69.60;;;;;;5066238;28;20039;-72
2024/01/03 03:44:59;;;;;;;0.50;0.50;;;14.60;69.60;;;;;;5066313;28;20036;-73
2024/01/03 03:47:24;;;;;;;0.50;0.50;;;14.60;69.30;;;;;;5065664;28;20048;-72
2024/01/03 03:49:50;;;;;;;0.55;0.55;;;14.60;69.80;;;;;;5066068;28;20470;-71
2024/01/03 03:52:15;;;;;;;0.50;0.50;;;14.50;69.90;;;;;;5064483;28;20033;-72
2024/01/03 03:54:41;;;;;;;0.50;0.50;;;14.50;69.40;;;;;;5065263;28;20033;-71
2024/01/03 03:57:06;;;;;;;0.80;0.80;;;14.50;69.30;;;;;;5047498;28;20123;-72
2024/01/03 03:59:32;;;;;;;0.50;0.50;;;14.50;69.60;;;;;;5066257;28;20017;-72
2024/01/03 04:01:57;;;;;;;0.50;0.50;;;14.50;69.10;;;;;;5067771;28;20040;-70
2024/01/03 04:04:23;;;;;;;0.50;0.50;;;14.50;69.40;;;;;;5070296;28;20025;-71
2024/01/03 04:06:48;;;;;;;0.60;0.60;;;14.50;69.70;;;;;;5070344;28;20039;-71
2024/01/03 04:09:14;;;;;;;0.60;0.60;;;14.50;69.60;;;;;;5070752;28;20369;-72
2024/01/03 04:11:43;;;;;;;1.85;1.73;;;14.50;69.60;;;;;;5068973;28;20508;-71
2024/01/03 04:14:10;;;;;;;0.40;0.40;;;14.50;69.50;;;;;;5070160;28;20020;-72
2024/01/03 04:16:36;;;;;;;0.50;0.50;;;14.40;69.70;;;;;;5070475;28;20035;-71
2024/01/03 04:19:02;;;;;;;1.10;1.02;;;14.30;69.60;;;;;;5069828;28;20021;-70
2024/01/03 04:21:31;;;;;;;0.50;0.50;;;14.30;69.60;;;;;;5051517;28;20602;-71
2024/01/03 04:23:57;;;;;;;0.55;0.55;;;14.30;69.80;;;;;;5069886;28;20031;-71
2024/01/03 04:26:23;;;;;;;0.70;0.70;;;14.20;70.00;;;;;;5051792;28;20024;-72
2024/01/03 04:28:48;;;;;;;0.52;0.52;;;14.20;70.00;;;;;;5069361;28;20031;-71
2024/01/03 04:31:14;;;;;;;0.60;0.60;;;14.20;69.50;;;;;;5064354;28;20033;-73
2024/01/03 04:33:39;;;;;;;1.02;0.98;;;14.10;69.60;;;;;;5051729;28;20036;-71
2024/01/03 04:36:05;;;;;;;0.50;0.50;;;14.10;69.50;;;;;;5051389;28;20063;-71
2024/01/03 04:38:31;;;;;;;0.50;0.50;;;14.10;69.80;;;;;;5069484;28;20333;-71
2024/01/03 04:40:56;;;;;;;0.63;0.63;;;14.10;69.60;;;;;;5066229;28;20025;-71
2024/01/03 04:43:22;;;;;;;1.38;0.95;;;14.10;69.60;;;;;;5049732;28;20033;-71
2024/01/03 04:45:47;;;;;;;0.50;0.50;;;14.10;69.80;;;;;;5067806;28;20020;-72
2024/01/03 04:48:13;;;;;;;3.22;1.48;;;14.10;69.80;;;;;;5068813;28;20064;-71
2024/01/03 04:50:39;;;;;;;0.50;0.50;;;14.20;69.80;;;;;;5078351;28;20084;-75
2024/01/03 04:53:04;;;;;;;3.85;1.60;;;14.10;69.80;;;;;;5094632;28;20036;-75
2024/01/03 04:55:30;;;;;;;0.40;0.40;;;14.10;69.90;;;;;;5164829;22;20059;-75
2024/01/03 04:57:57;;;;;;;0.50;0.50;;;14.00;69.80;;;;;;5135715;28;20038;-75
2024/01/03 05:00:23;;;;;;;0.40;0.40;;;14.00;70.00;;;;;;5135910;28;20023;-75
2024/01/03 05:02:48;;;;;;;0.50;0.50;;;14.00;70.10;;;;;;5137151;28;20053;-75
2024/01/03 05:05:14;;;;;;;0.50;0.50;;;14.00;70.00;;;;;;5136756;28;20036;-75
2024/01/03 05:07:39;;;;;;;1.05;0.80;;;13.90;70.20;;;;;;5130326;28;20039;-75
2024/01/03 05:10:08;;;;;;;0.50;0.50;;;13.90;70.20;;;;;;5116061;28;20024;-74
2024/01/03 05:12:34;;;;;;;1.25;1.17;;;13.90;70.20;;;;;;5115260;28;20024;-74
2024/01/03 05:15:00;;;;;;;1.67;1.58;;;13.80;70.60;;;;;;5104612;28;20018;-75
2024/01/03 05:17:26;;;;;;;0.75;0.75;;;13.90;70.50;;;;;;5123078;28;20028;-75
2024/01/03 05:19:52;;;;;;;0.50;0.50;;;13.90;70.30;;;;;;5097730;28;20093;-74
2024/01/03 05:22:17;;;;;;;0.50;0.50;;;13.90;70.60;;;;;;5120726;28;20020;-75
2024/01/03 05:24:43;;;;;;;1.05;1.05;;;13.90;70.30;;;;;;5115303;28;20017;-74
2024/01/03 05:27:08;;;;;;;0.40;0.40;;;14.00;70.20;;;;;;5115279;28;20028;-74
2024/01/03 05:29:34;;;;;;;1.67;1.58;;;13.90;70.10;;;;;;5117405;28;20028;-75
2024/01/03 05:31:59;;;;;;;0.80;0.80;;;14.00;70.30;;;;;;5110284;28;20034;-75
2024/01/03 05:34:25;;;;;;;0.50;0.50;;;14.00;70.20;;;;;;5121106;28;20034;-75
2024/01/03 05:36:51;;;;;;;0.60;0.60;;;14.00;70.40;;;;;;5128119;28;20040;-74
2024/01/03 05:39:16;;;;;;;0.60;0.60;;;14.00;70.30;;;;;;5115588;28;20012;-75
2024/01/03 05:41:42;;;;;;;0.73;0.73;;;14.10;70.00;;;;;;5130307;28;20028;-75
2024/01/03 05:44:08;;;;;;;0.70;0.68;;;14.10;69.70;;;;;;5130853;28;20035;-75
2024/01/03 05:46:34;;;;;;;0.95;0.95;;;14.10;69.50;;;;;;5133983;28;20100;-75
2024/01/03 05:48:59;;;;;;;0.50;0.50;;;14.10;70.10;;;;;;5131587;28;20008;-75
2024/01/03 05:51:25;;;;;;;0.55;0.55;;;14.20;69.70;;;;;;5129826;28;20031;-75
2024/01/03 05:53:50;;;;;;;0.40;0.40;;;14.20;69.70;;;;;;5130596;28;20043;-75
2024/01/03 05:56:16;;;;;;;0.50;0.50;;;14.20;69.80;;;;;;5114953;28;20044;-75
2024/01/03 05:58:43;;;;;;;0.50;0.50;;;14.30;69.90;;;;;;5110428;28;20040;-75
2024/01/03 06:01:11;;;;;;;0.60;0.60;;;14.30;69.30;;;;;;5094342;28;20475;-72
2024/01/03 06:03:37;;;;;;;0.65;0.65;;;14.30;69.50;;;;;;5087426;28;20172;-72
2024/01/03 06:06:02;;;;;;;0.47;0.47;;;14.30;69.30;;;;;;5079213;28;20336;-72
2024/01/03 06:08:28;;;;;;;0.60;0.60;;;14.30;69.60;;;;;;5085018;28;20032;-72
2024/01/03 06:10:55;;;;;;;0.98;0.98;;;14.40;69.20;;;;;;5084720;28;20451;-72
2024/01/03 06:13:22;;;;;;;0.50;0.50;;;14.30;69.40;;;;;;5067731;28;20017;-72
2024/01/03 06:15:47;;;;;;;0.40;0.40;;;14.30;69.20;;;;;;5067883;28;20396;-71
2024/01/03 06:18:13;;;;;;;0.50;0.50;;;14.30;68.80;;;;;;5067726;28;20021;-71
2024/01/03 06:20:39;;;;;;;1.33;1.05;;;14.20;68.90;;;;;;5067347;28;20044;-71
2024/01/03 06:23:04;;;;;;;0.50;0.50;;;14.20;69.00;;;;;;5071003;28;20368;-72
2024/01/03 06:25:33;;;;;;;0.50;0.50;;;14.20;69.10;;;;;;5087322;28;20040;-72
2024/01/03 06:27:58;;;;;;;0.50;0.50;;;14.20;69.20;;;;;;5088224;28;20028;-72
2024/01/03 06:30:24;;;;;;;0.70;0.70;;;14.20;69.20;;;;;;5083834;28;20044;-70
2024/01/03 06:32:50;;;;;;;1.30;1.25;;;14.20;69.00;;;;;;5070050;28;20036;-72
2024/01/03 06:35:15;;;;;;;0.70;0.70;;;14.10;68.90;;;;;;5069621;28;20028;-71
2024/01/03 06:37:41;;;;;;;0.50;0.50;;;14.20;69.30;;;;;;5067149;28;20020;-72
2024/01/03 06:40:07;;;;;;;0.52;0.52;;;14.10;69.50;;;;;;5085860;28;20028;-73
2024/01/03 06:42:32;;;;;;;0.55;0.55;;;14.20;69.00;;;;;;5079256;28;20373;-71
2024/01/03 06:44:58;;;;;;;0.50;0.50;;;14.20;69.00;;;;;;5071983;28;20492;-70
2024/01/03 06:47:23;;;;;;;0.77;0.77;;;14.10;69.30;;;;;;5063588;28;20024;-71
2024/01/03 06:49:49;;;;;;;0.50;0.50;;;14.10;69.60;;;;;;5077704;28;20059;-72
2024/01/03 06:52:14;;;;;;;0.60;0.60;;;14.10;69.70;;;;;;5048442;28;20388;-71
2024/01/03 06:54:40;;;;;;;0.50;0.50;;;14.10;69.70;;;;;;5080357;28;20025;-70
2024/01/03 06:57:05;;;;;;;0.60;0.60;;;14.20;69.80;;;;;;5067243;28;20020;-71
2024/01/03 06:59:37;;;;;;;0.73;0.73;;;14.20;69.70;;;;;;5085058;28;20044;-70
2024/01/03 07:02:03;;;;;;;0.50;0.50;;;14.20;69.70;;;;;;5085752;28;20016;-70
2024/01/03 07:04:28;;;;;;;0.60;0.60;;;14.20;69.70;;;;;;5085462;28;20596;-70
2024/01/03 07:06:54;;;;;;;2.08;1.85;;;14.30;69.40;;;;;;5085930;28;20070;-69
2024/01/03 07:09:20;;;;;;;0.50;0.50;;;14.30;69.20;;;;;;5086929;28;20024;-71
2024/01/03 07:11:46;;;;;;;0.65;0.60;;;14.30;69.70;;;;;;5088609;28;20057;-71
2024/01/03 07:14:13;;;;;;;0.50;0.50;;;14.30;69.90;;;;;;5086943;28;20024;-71
2024/01/03 07:16:39;;;;;;;0.50;0.50;;;14.40;69.80;;;;;;5087172;28;20379;-71
2024/01/03 07:19:05;;;;;;;0.50;0.50;;;14.40;69.60;;;;;;5068622;28;20028;-70
2024/01/03 07:21:31;;;;;;;0.73;0.73;;;14.40;69.70;;;;;;5085408;28;20028;-70
2024/01/03 07:23:56;;;;;;;0.47;0.47;;;14.50;69.20;;;;;;5066411;28;20021;-70
2024/01/03 07:26:22;;;;;;;0.60;0.60;;;14.40;69.00;;;;;;5085021;28;20040;-71
2024/01/03 07:28:47;;;;;;;0.50;0.50;;;14.40;69.20;;;;;;5085663;28;20397;-70
2024/01/03 07:31:13;;;;;;;2.53;1.30;;;14.50;69.40;;;;;;5087124;28;20036;-69
2024/01/03 07:33:40;;;;;;;0.50;0.50;;;14.50;69.10;;;;;;5086361;28;20040;-72
2024/01/03 07:36:06;;;;;;;0.50;0.50;;;14.50;68.70;;;;;;5086917;28;20024;-71
2024/01/03 07:38:32;;;;;;;0.50;0.50;;;14.60;68.50;;;;;;5084981;28;20111;-71
2024/01/03 07:40:59;;;;;;;0.50;0.50;;;14.60;69.20;;;;;;5086831;28;20123;-71
2024/01/03 07:43:25;;;;;;;0.50;0.50;;;14.60;69.10;;;;;;5085776;28;20612;-71
2024/01/03 07:45:51;;;;;;;0.55;0.55;;;14.60;69.40;;;;;;5086972;28;20040;-71
2024/01/03 07:48:16;;;;;;;0.50;0.50;;;14.70;69.10;;;;;;5085144;28;20028;-71
2024/01/03 07:50:42;;;;;;;0.50;0.50;;;14.70;69.20;;;;;;5068137;28;20028;-72
2024/01/03 07:53:08;;;;;;;0.50;0.50;;;14.70;69.00;;;;;;5085031;28;20074;-71
2024/01/03 07:55:33;;;;;;;0.50;0.50;;;14.80;68.60;;;;;;5085202;28;20045;-72
2024/01/03 07:57:59;;;;;;;0.50;0.50;;;14.70;68.90;;;;;;5086185;28;20078;-71
2024/01/03 08:00:24;;;;;;;0.82;0.82;;;14.70;68.50;;;;;;5086533;28;20028;-71
2024/01/03 08:02:50;;;;;;;0.50;0.50;;;14.80;68.50;;;;;;5085495;28;20058;-71
2024/01/03 08:05:15;;;;;;;0.40;0.40;;;14.80;68.40;;;;;;5084629;28;20114;-71
2024/01/03 08:07:40;;;;;;;0.40;0.40;;;14.70;68.70;;;;;;5068168;28;20480;-71
2024/01/03 08:10:07;;;;;;;0.85;0.85;;;14.80;69.00;;;;;;5086369;28;20059;-72
2024/01/03 08:12:33;;;;;;;0.60;0.60;;;14.80;69.00;;;;;;5086330;28;20028;-72
2024/01/03 08:14:58;;;;;;;0.60;0.60;;;14.80;68.90;;;;;;5084212;28;20055;-72
2024/01/03 08:17:24;;;;;;;0.40;0.40;;;14.80;69.10;;;;;;5086446;28;20094;-72
2024/01/03 08:19:50;;;;;;;0.57;0.57;;;14.80;68.90;;;;;;5087954;28;20421;-73
2024/01/03 08:22:16;;;;;;;0.40;0.40;;;14.90;68.30;;;;;;5110790;28;20076;-74
2024/01/03 08:24:42;;;;;;;0.50;0.50;;;14.80;68.90;;;;;;5103041;28;20094;-71
2024/01/03 08:27:07;;;;;;;0.50;0.50;;;14.90;68.40;;;;;;5081174;28;20020;-71
2024/01/03 08:29:34;;;;;;;0.50;0.50;;;14.90;68.40;;;;;;5085145;28;20082;-71
2024/01/03 08:31:59;;;;;;;0.50;0.50;;;14.90;68.50;;;;;;5098947;28;20032;-74
2024/01/03 08:34:25;;;;;;;0.50;0.50;;;14.90;68.20;;;;;;5105764;28;20035;-74
2024/01/03 08:36:51;;;;;;;0.50;0.50;;;14.90;68.10;;;;;;5111802;28;20020;-74
2024/01/03 08:39:16;;;;;;;0.50;0.50;;;14.90;68.20;;;;;;5081267;28;20008;-74
2024/01/03 08:41:42;;;;;;;0.50;0.50;;;14.90;68.80;;;;;;5086959;28;20270;-74
2024/01/03 08:44:07;;;;;;;0.55;0.55;;;14.90;68.80;;;;;;5097271;28;20036;-74
2024/01/03 08:46:39;;;;;;;0.57;0.57;;;14.90;68.70;;;;;;5103943;28;20032;-74
2024/01/03 08:49:05;;;;;;;0.45;0.45;;;14.80;68.40;;;;;;5108677;28;20024;-75
2024/01/03 08:51:31;;;;;;;0.50;0.50;;;14.70;68.30;;;;;;5095050;28;20128;-73
2024/01/03 08:53:57;;;;;;;0.50;0.50;;;14.60;68.70;;;;;;5082252;28;20020;-74
2024/01/03 08:56:23;;;;;;;0.50;0.50;;;14.50;68.80;;;;;;5054748;28;20446;-74
2024/01/03 08:58:49;;;;;;;0.65;0.65;;;14.40;68.90;;;;;;5069300;28;20021;-74
2024/01/03 09:01:16;;;;;;;0.45;0.45;;;14.30;69.20;;;;;;5069125;28;20092;-74
2024/01/03 09:03:42;;;;;;;0.50;0.50;;;14.20;69.40;;;;;;5058055;28;20130;-73
2024/01/03 09:06:08;;;;;;;0.40;0.40;;;14.10;69.60;;;;;;5089598;28;20126;-74
2024/01/03 09:08:34;;;;;;;0.43;0.43;;;14.00;70.00;;;;;;5082044;28;20044;-74
2024/01/03 09:10:59;;;;;;;4.85;1.95;;;14.00;70.20;;;;;;5079684;28;20028;-74
2024/01/03 09:13:25;;;;;;;0.50;0.50;;;13.90;70.40;;;;;;5062542;28;20119;-74
2024/01/03 09:15:51;;;;;;;0.57;0.57;;;13.90;70.60;;;;;;5086704;28;20031;-74
2024/01/03 09:18:17;;;;;;;0.50;0.50;;;13.80;70.70;;;;;;5082057;28;20032;-75
2024/01/03 09:20:42;;;;;;;0.65;0.65;;;13.90;71.00;;;;;;5071823;28;20486;-75
2024/01/03 09:23:07;;;;;;;0.40;0.40;;;13.90;71.20;;;;;;5078851;28;20255;-74
2024/01/03 09:25:34;;;;;;;0.50;0.50;;;13.90;71.10;;;;;;5078352;28;20024;-74
2024/01/03 09:27:59;;;;;;;0.43;0.43;;;13.90;71.20;;;;;;5087945;28;20475;-75
2024/01/03 09:30:25;;;;;;;0.50;0.50;;;13.90;71.10;;;;;;5074812;28;20028;-76
2024/01/03 09:32:50;;;;;;;0.40;0.40;;;13.90;71.30;;;;;;5066024;28;20542;-76
2024/01/03 09:35:16;;;;;;;0.50;0.50;;;13.80;71.10;;;;;;5085432;28;20035;-78
2024/01/03 09:37:41;;;;;;;1.05;1.00;;;13.80;71.20;;;;;;5075449;28;20021;-78
2024/01/03 09:40:09;;;;;;;0.50;0.50;;;13.70;71.20;;;;;;5090480;28;20476;-77
2024/01/03 09:42:36;;;;;;;0.50;0.50;;;13.70;71.30;;;;;;5079661;28;20032;-77
2024/01/03 09:45:02;;;;;;;0.47;0.47;;;13.70;71.30;;;;;;5082051;28;20035;-77
2024/01/03 09:47:28;;;;;;;0.50;0.50;;;13.70;71.30;;;;;;5063117;28;20535;-77
2024/01/03 09:49:53;;;;;;;0.50;0.50;;;13.60;71.40;;;;;;5074371;28;20040;-76
2024/01/03 09:52:19;;;;;;;0.50;0.50;;;13.60;71.50;;;;;;5070546;28;20060;-77
2024/01/03 09:54:45;;;;;;;0.50;0.50;;;13.70;71.60;;;;;;5068186;28;20028;-77
2024/01/03 09:57:12;;;;;;;0.50;0.50;;;13.70;71.70;;;;;;5077806;28;20025;-77
2024/01/03 09:59:37;;;;;;;0.50;0.50;;;13.70;71.70;;;;;;5078562;28;20487;-76
2024/01/03 10:02:05;;;;;;;0.50;0.50;;;13.70;71.90;;;;;;5080550;28;20034;-76
2024/01/03 10:04:31;;;;;;;0.50;0.50;;;13.70;72.00;;;;;;5090103;28;20089;-76
2024/01/03 10:06:58;;;;;;;0.50;0.50;;;13.80;71.90;;;;;;5089009;28;20024;-75
2024/01/03 10:09:24;;;;;;;0.60;0.60;;;13.80;71.90;;;;;;5088360;28;20461;-75
2024/01/03 10:11:52;;;;;;;0.50;0.50;;;13.80;71.90;;;;;;5088415;28;20036;-75
2024/01/03 10:14:20;;;;;;;0.50;0.50;;;13.90;71.80;;;;;;5088180;28;20099;-75
2024/01/03 10:16:47;;;;;;;0.50;0.50;;;13.90;71.60;;;;;;5087964;28;20053;-75
2024/01/03 10:19:15;;;;;;;0.63;0.63;;;13.90;71.50;;;;;;5088030;28;20074;-73
2024/01/03 10:21:51;;;;;;;0.45;0.45;;;13.90;71.50;;;;;;5087972;28;20387;-74
2024/01/03 10:24:18;;;;;;;0.60;0.60;;;13.90;71.60;;;;;;5087940;28;20027;-74
2024/01/03 10:26:45;;;;;;;0.50;0.50;;;14.00;71.40;;;;;;5069595;28;20028;-74
2024/01/03 10:29:13;;;;;;;0.50;0.50;;;13.90;71.20;;;;;;5070146;28;20338;-74
2024/01/03 10:31:39;;;;;;;0.40;0.40;;;13.90;71.20;;;;;;5088290;28;20028;-74
2024/01/03 10:34:05;;;;;;;0.85;0.63;;;13.90;71.10;;;;;;5082743;28;20024;-74
2024/01/03 10:36:34;;;;;;;0.68;0.68;;;13.90;71.00;;;;;;5088352;28;20032;-74
2024/01/03 10:39:01;;;;;;;0.60;0.60;;;13.80;71.00;;;;;;5074480;28;20021;-76
2024/01/03 10:41:27;;;;;;;0.50;0.50;;;13.80;71.10;;;;;;5085800;28;20081;-72
2024/01/03 10:43:55;;;;;;;0.50;0.50;;;13.80;71.20;;;;;;5070976;28;20070;-72
2024/01/03 10:46:23;;;;;;;0.50;0.50;;;13.80;71.10;;;;;;5084423;28;20035;-73
2024/01/03 10:48:48;;;;;;;0.50;0.50;;;13.80;71.00;;;;;;5081144;28;20024;-72
2024/01/03 10:51:16;;;;;;;1.35;1.25;;;13.70;71.30;;;;;;5076730;28;20115;-72
2024/01/03 10:53:42;;;;;;;0.50;0.50;;;13.70;71.10;;;;;;5073273;28;20597;-72
2024/01/03 10:56:09;;;;;;;0.50;0.50;;;13.70;71.20;;;;;;5069586;28;20039;-72
2024/01/03 10:58:39;;;;;;;0.52;0.52;;;13.70;71.20;;;;;;5071138;28;20032;-72
2024/01/03 11:01:16;;;;;;;0.55;0.55;;;13.70;71.10;;;;;;5067885;28;20399;-71
2024/01/03 11:04:23;;;;;;;0.68;0.65;;;13.70;71.10;;;;;;5087079;28;20028;-72
2024/01/03 11:07:17;;;;;;;0.50;0.50;;;13.70;71.10;;;;;;5072555;28;20040;-72
2024/01/03 11:09:44;;;;;;;0.55;0.55;;;13.50;71.20;;;;;;5087185;28;20028;-73
2024/01/03 11:12:13;;;;;;;0.50;0.50;;;13.50;71.30;;;;;;5085222;28;20032;-72
2024/01/03 11:14:38;;;;;;;0.93;0.93;;;13.50;71.30;;;;;;5086735;28;20042;-72
2024/01/03 11:17:05;;;;;;;0.55;0.55;;;13.50;71.40;;;;;;5085968;28;20232;-74
2024/01/03 11:19:32;;;;;;;0.50;0.50;;;13.50;71.50;;;;;;5076319;28;20039;-73
2024/01/03 11:22:05;;;;;;;0.60;0.60;;;13.60;71.60;;;;;;5079894;28;20119;-73
2024/01/03 11:24:30;;;;;;;0.50;0.50;;;13.70;71.80;;;;;;5085624;28;20828;-72
2024/01/03 11:26:56;;;;;;;0.50;0.50;;;13.60;71.70;;;;;;5067505;28;20028;-73
2024/01/03 11:29:48;;;;;;;0.40;0.40;;;13.70;71.70;;;;;;5086509;28;20028;-74
2024/01/03 11:32:14;;;;;;;0.50;0.50;;;13.70;71.60;;;;;;5086716;28;20480;-73
2024/01/03 11:34:41;;;;;;;0.68;0.68;;;13.70;71.60;;;;;;5085810;28;20034;-74
2024/01/03 11:37:26;;;;;;;0.73;0.73;;;13.70;71.70;;;;;;5086607;28;20028;-75
2024/01/03 11:39:53;;;;;;;0.50;0.50;;;13.60;71.70;;;;;;5086533;28;20032;-75
2024/01/03 11:42:32;;;;;;;0.50;0.50;;;13.60;71.70;;;;;;5067019;28;20032;-75
2024/01/03 11:45:02;;;;;;;0.70;0.70;;;13.60;71.90;;;;;;5086450;28;20024;-74
2024/01/03 11:47:28;;;;;;;0.50;0.50;;;13.60;72.00;;;;;;5085284;28;20316;-75
2024/01/03 11:49:57;;;;;;;0.57;0.57;;;13.60;71.90;;;;;;5086706;28;20106;-77
2024/01/03 11:52:24;;;;;;;0.50;0.50;;;13.60;71.90;;;;;;5070145;28;20119;-77
2024/01/03 11:54:50;;;;;;;0.60;0.60;;;13.60;71.80;;;;;;5087831;28;20198;-77
2024/01/03 11:57:19;;;;;;;0.60;0.60;;;13.60;71.90;;;;;;5092414;28;20028;-78
2024/01/03 11:59:45;;;;;;;0.50;0.50;;;13.60;71.90;;;;;;5105698;28;20070;-78
2024/01/03 12:02:14;;;;;;;0.50;0.50;;;13.60;71.80;;;;;;5104417;28;20391;-77
2024/01/03 12:04:41;;;;;;;0.55;0.55;;;13.60;71.90;;;;;;5082937;28;20370;-77
2024/01/03 12:07:07;;;;;;;0.60;0.60;;;13.60;72.00;;;;;;5107983;28;20103;-77
2024/01/03 12:09:33;;;;;;;0.50;0.50;;;13.60;72.10;;;;;;5109980;28;20066;-76
2024/01/03 12:11:59;;;;;;;0.50;0.50;;;13.60;72.00;;;;;;5102874;28;20028;-78
2024/01/03 12:14:24;;;;;;;0.40;0.40;;;13.60;72.10;;;;;;5093052;28;20092;-77
2024/01/03 12:16:53;;;;;;;0.40;0.40;;;13.60;72.00;;;;;;5091129;28;20450;-78
2024/01/03 12:19:30;;;;;;;0.50;0.50;;;13.60;71.90;;;;;;5092268;28;20519;-77
2024/01/03 12:21:58;;;;;;;0.50;0.50;;;13.60;72.10;;;;;;5088855;28;20032;-77
2024/01/03 12:24:43;;;;;;;0.75;0.75;;;13.50;72.10;;;;;;5090574;28;20446;-77
2024/01/03 12:27:09;;;;;;;0.60;0.60;;;13.50;72.20;;;;;;5092150;28;20028;-77
2024/01/03 12:29:39;;;;;;;0.50;0.50;;;13.60;72.20;;;;;;5090853;28;20032;-77
2024/01/03 12:32:14;;;;;;;0.60;0.60;;;13.60;72.20;;;;;;5090332;28;20586;-76
2024/01/03 12:34:40;;;;;;;0.43;0.43;;;13.70;72.20;;;;;;5089991;28;20032;-76
2024/01/03 12:37:06;;;;;;;0.50;0.50;;;13.70;72.20;;;;;;5091059;28;20024;-77
2024/01/03 12:39:35;;;;;;;0.50;0.50;;;13.70;72.20;;;;;;5091158;28;20217;-77
2024/01/03 12:42:04;;;;;;;0.52;0.52;;;13.70;71.90;;;;;;5089750;28;20537;-77
2024/01/03 12:44:31;;;;;;;0.50;0.50;;;13.70;72.20;;;;;;5091098;28;20032;-77
2024/01/03 12:46:57;;;;;;;0.68;0.68;;;13.70;72.30;;;;;;5090455;28;20029;-77